Time;durP1;ratioP1;P1;durP2;ratioP2;P2;SDS_P1;SDS_P2;PMS_P1;PMS_P2;Temp;Humidity;BMP_temperature;BMP_pressure;BME280_temperature;BME280_humidity;BME280_pressure;Samples;Min_cycle;Max_cycle;Signal;HPM_P1;HPM_P2
2023/02/03 00:00:46;;;;;;;7.90;3.60;;;;;;;0.83;85.05;98319.55;105720;1258;75423;-27
2023/02/03 00:03:15;;;;;;;7.70;4.60;;;;;;;1.40;84.30;98316.65;105682;1254;74292;-28
2023/02/03 00:05:45;;;;;;;7.80;3.90;;;;;;;1.79;82.68;98321.85;105620;1254;61647;-28
2023/02/03 00:08:14;;;;;;;6.40;4.30;;;;;;;1.74;82.43;98321.97;105482;1259;61726;-28
2023/02/03 00:10:45;;;;;;;7.40;4.50;;;;;;;1.53;82.59;98323.46;105488;1253;75519;-28
2023/02/03 00:13:13;;;;;;;7.90;4.20;;;;;;;1.30;83.28;98326.80;105470;1258;75550;-28
2023/02/03 00:15:42;;;;;;;8.70;5.40;;;;;;;1.07;84.15;98321.52;105622;1254;74282;-28
2023/02/03 00:18:10;;;;;;;5.70;3.80;;;;;;;0.90;85.09;98327.90;105572;1254;62505;-28
2023/02/03 00:20:39;;;;;;;9.50;5.10;;;;;;;1.30;84.95;98326.77;105561;1254;61849;-28
2023/02/03 00:23:09;;;;;;;9.20;5.50;;;;;;;1.78;83.30;98331.11;105639;1253;75415;-28
2023/02/03 00:25:39;;;;;;;10.90;6.40;;;;;;;1.77;82.68;98323.66;105613;1253;75815;-28
2023/02/03 00:28:08;;;;;;;13.40;6.60;;;;;;;1.52;83.41;98325.39;105696;1254;73019;-28
2023/02/03 00:30:38;;;;;;;14.20;6.60;;;;;;;1.27;84.37;98323.88;105681;1254;61167;-28
2023/02/03 00:33:07;;;;;;;9.80;5.70;;;;;;;1.03;85.43;98329.95;105650;1267;61668;-28
2023/02/03 00:35:39;;;;;;;9.50;5.80;;;;;;;0.90;86.11;98330.30;105721;1254;75093;-28
2023/02/03 00:38:08;;;;;;;8.90;5.10;;;;;;;1.37;85.64;98331.21;105697;1259;74867;-28
2023/02/03 00:40:36;;;;;;;10.10;5.80;;;;;;;1.68;84.22;98326.45;105541;1258;74224;-28
2023/02/03 00:50:40;;;;;;;15.90;8.00;;;;;;;1.07;85.91;98337.10;102600;1295;599984;-27
2023/02/03 00:53:09;;;;;;;10.60;6.20;;;;;;;1.04;86.43;98340.50;105052;1270;62759;-26
2023/02/03 00:55:37;;;;;;;12.70;7.40;;;;;;;1.63;85.16;98337.11;105065;1270;61948;-26
2023/02/03 00:58:06;;;;;;;8.30;6.20;;;;;;;1.80;83.81;98336.15;104875;1267;73736;-26
2023/02/03 01:00:34;;;;;;;12.50;6.80;;;;;;;1.57;84.22;98340.00;104877;1266;75649;-26
2023/02/03 01:03:03;;;;;;;10.30;6.90;;;;;;;1.36;84.75;98343.73;104878;1272;74099;-27
2023/02/03 01:05:32;;;;;;;9.60;6.40;;;;;;;1.11;85.56;98340.29;103954;1264;61109;-29
2023/02/03 01:08:00;;;;;;;7.40;5.30;;;;;;;0.77;87.15;98338.82;105192;1269;61045;-29
2023/02/03 01:10:29;;;;;;;6.90;4.70;;;;;;;0.97;87.42;98342.58;105145;1269;73854;-29
2023/02/03 01:12:58;;;;;;;8.10;5.00;;;;;;;1.31;86.07;98343.49;105189;1269;75949;-29
2023/02/03 01:15:28;;;;;;;9.30;5.40;;;;;;;1.36;85.25;98340.50;105140;1269;72672;-29
2023/02/03 01:17:56;;;;;;;8.30;5.70;;;;;;;1.24;85.38;98345.08;105210;1265;61483;-29
2023/02/03 01:20:28;;;;;;;9.20;6.00;;;;;;;1.07;86.10;98342.70;105192;1270;61574;-29
2023/02/03 01:22:58;;;;;;;8.60;5.50;;;;;;;0.84;87.03;98345.98;105178;1269;74608;-29
2023/02/03 01:25:30;;;;;;;9.90;6.50;;;;;;;0.92;87.60;98344.20;105171;1267;75782;-29
2023/02/03 01:27:58;;;;;;;9.30;6.30;;;;;;;1.36;86.10;98345.26;105190;1263;73947;-26
2023/02/03 01:30:27;;;;;;;7.50;5.20;;;;;;;1.48;85.25;98347.17;104990;1269;61936;-28
2023/02/03 01:32:56;;;;;;;9.80;6.30;;;;;;;1.36;84.92;98349.40;104792;1266;61058;-29
2023/02/03 01:35:25;;;;;;;12.00;6.90;;;;;;;1.08;86.08;98357.38;105015;1268;74474;-29
2023/02/03 01:37:54;;;;;;;11.20;6.80;;;;;;;0.92;86.82;98356.52;104958;1273;74967;-29
2023/02/03 01:40:22;;;;;;;8.80;4.70;;;;;;;0.77;87.78;98360.55;104895;1264;74358;-29
2023/02/03 01:42:52;;;;;;;11.80;6.40;;;;;;;1.27;87.22;98359.27;104911;1265;61089;-29
2023/02/03 01:45:20;;;;;;;9.00;5.70;;;;;;;1.78;85.04;98354.27;104793;1264;61681;-29
2023/02/03 01:47:57;;;;;;;10.00;4.90;;;;;;;1.85;83.72;98357.63;104921;1269;74335;-29
2023/02/03 01:50:35;;;;;;;10.50;7.20;;;;;;;1.63;83.71;98360.08;104851;1273;75822;-29
2023/02/03 01:53:07;;;;;;;8.00;5.10;;;;;;;1.30;84.71;98358.05;104812;1270;74430;-29
2023/02/03 01:55:44;;;;;;;11.90;6.50;;;;;;;1.05;85.74;98360.94;104920;1269;61126;-29
2023/02/03 01:58:28;;;;;;;9.30;6.40;;;;;;;0.87;86.70;98359.18;104772;1263;61124;-29
2023/02/03 02:00:57;;;;;;;9.90;6.80;;;;;;;1.28;86.53;98358.73;104802;1272;74613;-29
2023/02/03 02:03:30;;;;;;;10.40;5.40;;;;;;;1.47;85.08;98345.20;104913;1269;75035;-29
2023/02/03 02:06:04;;;;;;;9.20;4.70;;;;;;;1.06;85.20;98363.45;104868;1272;74268;-28
2023/02/03 02:08:34;;;;;;;4.50;3.20;;;;;;;0.78;86.38;98363.73;105544;1259;61192;-28
2023/02/03 02:11:02;;;;;;;4.30;3.10;;;;;;;0.61;86.50;98366.66;105506;1255;61074;-27
2023/02/03 02:13:33;;;;;;;3.10;2.10;;;;;;;0.48;87.14;98369.69;105859;1257;74477;-28
2023/02/03 02:16:09;;;;;;;2.10;1.70;;;;;;;0.88;85.93;98370.56;105686;1254;76000;-28
2023/02/03 02:19:08;;;;;;;2.70;2.00;;;;;;;0.72;85.20;98368.33;105693;1260;74186;-26
2023/02/03 02:22:03;;;;;;;3.00;1.80;;;;;;;0.53;86.17;98375.78;105706;1254;61209;-26
2023/02/03 02:24:46;;;;;;;3.20;1.60;;;;;;;0.26;87.09;98379.31;105703;1260;61874;-26
2023/02/03 02:27:36;;;;;;;4.00;1.50;;;;;;;0.21;87.76;98374.97;105699;1259;74511;-26
2023/02/03 02:30:23;;;;;;;1.50;1.40;;;;;;;0.65;85.82;98378.42;105846;1257;74948;-26
2023/02/03 02:32:52;;;;;;;1.40;1.30;;;;;;;0.73;85.36;98384.84;105732;1261;74238;-26
2023/02/03 02:35:43;;;;;;;2.20;1.50;;;;;;;0.37;85.91;98376.06;105617;1253;60986;-26
2023/02/03 02:38:19;;;;;;;1.90;1.30;;;;;;;0.15;87.20;98381.39;105721;1259;61712;-26
2023/02/03 02:40:59;;;;;;;1.70;1.10;;;;;;;0.33;87.03;98383.28;105626;1260;74527;-26
2023/02/03 02:43:43;;;;;;;1.10;1.00;;;;;;;0.47;86.06;98389.20;105679;1258;74385;-26
2023/02/03 02:46:16;;;;;;;;;;;;;;;0.44;85.56;98399.80;105696;1264;72858;-24
2023/02/03 02:48:51;;;;;;;1.70;1.40;;;;;;;0.22;86.43;98403.10;105439;1255;62881;-26
2023/02/03 02:51:20;;;;;;;2.10;1.30;;;;;;;-0.00;87.05;98405.37;105675;1258;61186;-27
2023/02/03 02:53:53;;;;;;;2.70;1.50;;;;;;;0.04;87.21;98411.31;105878;1255;74203;-26
2023/02/03 02:56:23;;;;;;;1.20;1.10;;;;;;;0.41;85.83;98419.23;105712;1260;75137;-26
2023/02/03 02:58:51;;;;;;;1.40;1.20;;;;;;;0.27;85.63;98421.46;105734;1259;74192;-26
2023/02/03 03:01:20;;;;;;;2.50;1.60;;;;;;;0.13;85.98;98421.30;105878;1254;61112;-26
2023/02/03 03:03:49;;;;;;;2.90;1.60;;;;;;;0.03;86.23;98420.36;105867;1258;61648;-27
2023/02/03 03:06:19;;;;;;;1.90;1.40;;;;;;;0.23;85.43;98423.71;105758;1256;73282;-26
2023/02/03 03:08:57;;;;;;;2.20;1.20;;;;;;;0.29;84.35;98428.56;105807;1254;75644;-26
2023/02/03 03:11:27;;;;;;;2.00;1.20;;;;;;;0.12;84.18;98431.39;105566;1260;74160;-26
2023/02/03 03:13:57;;;;;;;1.50;1.20;;;;;;;0.04;84.06;98434.36;105589;1260;61112;-26
2023/02/03 03:16:27;;;;;;;1.60;1.40;;;;;;;-0.36;84.82;98439.96;105776;1259;61652;-26
2023/02/03 03:18:56;;;;;;;2.40;1.20;;;;;;;-0.17;84.65;98440.27;105766;1260;73466;-26
2023/02/03 03:21:31;;;;;;;2.00;1.50;;;;;;;0.01;83.66;98450.36;105603;1254;75858;-26
2023/02/03 03:24:02;;;;;;;1.30;1.10;;;;;;;-0.01;83.08;98452.98;105694;1259;73552;-26
2023/02/03 03:26:35;;;;;;;1.80;1.30;;;;;;;-0.17;83.81;98457.17;105639;1254;61165;-26
2023/02/03 03:29:03;;;;;;;;;;;;;;;-0.25;84.51;98466.92;105675;1260;61688;-26
2023/02/03 03:31:32;;;;;;;1.60;1.30;;;;;;;-0.12;84.41;98467.17;105714;1255;74571;-26
2023/02/03 03:34:01;;;;;;;1.90;1.40;;;;;;;0.20;83.56;98477.61;105841;1254;75801;-26
2023/02/03 03:36:41;;;;;;;2.60;1.80;;;;;;;0.09;83.01;98470.45;105609;1260;74233;-26
2023/02/03 03:39:19;;;;;;;5.80;2.20;;;;;;;-0.01;83.09;98484.05;105356;1260;62680;-26
2023/02/03 03:42:06;;;;;;;2.30;1.50;;;;;;;-0.12;83.34;98483.76;105539;1254;61573;-26
2023/02/03 03:44:44;;;;;;;2.30;1.80;;;;;;;-0.37;83.52;98480.25;105733;1254;74632;-26
2023/02/03 03:47:18;;;;;;;2.60;2.00;;;;;;;0.12;82.25;98492.32;105842;1257;74976;-26
2023/02/03 03:49:47;;;;;;;4.60;1.70;;;;;;;0.24;81.28;98494.01;105688;1259;73011;-26
2023/02/03 03:52:19;;;;;;;2.70;1.70;;;;;;;-0.03;81.46;98497.97;105739;1255;61135;-26
2023/02/03 03:54:47;;;;;;;3.80;2.10;;;;;;;-0.16;82.18;98501.14;105591;1261;61911;-25
2023/02/03 03:57:20;;;;;;;3.60;1.60;;;;;;;-0.27;82.30;98503.38;105694;1254;74401;-25
2023/02/03 03:59:49;;;;;;;2.70;2.10;;;;;;;-0.27;82.26;98505.08;105676;1259;75796;-25
2023/02/03 04:02:17;;;;;;;1.50;1.40;;;;;;;-0.05;81.65;98512.06;105898;1254;74189;-25
2023/02/03 04:04:46;;;;;;;3.10;2.00;;;;;;;0.13;80.19;98510.07;105455;1254;61145;-25
2023/02/03 04:07:15;;;;;;;2.20;1.80;;;;;;;0.01;80.21;98515.53;105717;1259;61673;-25
2023/02/03 04:09:44;;;;;;;2.60;1.70;;;;;;;-0.38;80.89;98506.39;105885;1259;73575;-25
2023/02/03 04:12:20;;;;;;;3.30;2.00;;;;;;;-0.44;81.35;98520.15;105709;1260;75620;-25
2023/02/03 04:14:49;;;;;;;2.60;1.90;;;;;;;-0.49;81.46;98518.31;105704;1259;74246;-25
2023/02/03 04:17:19;;;;;;;2.60;1.50;;;;;;;-0.11;80.15;98521.58;105796;1255;61912;-25
2023/02/03 04:19:47;;;;;;;2.80;1.60;;;;;;;-0.19;78.83;98514.45;105634;1254;61225;-25
2023/02/03 04:22:16;;;;;;;2.50;1.60;;;;;;;-0.17;78.89;98526.44;105692;1254;73450;-25
2023/02/03 04:24:45;;;;;;;4.90;1.60;;;;;;;-0.41;79.63;98528.52;105701;1259;75847;-25
2023/02/03 04:27:13;;;;;;;2.20;1.50;;;;;;;-0.52;80.24;98529.85;105660;1254;74420;-25
2023/02/03 04:29:42;;;;;;;1.80;1.50;;;;;;;-0.83;81.31;98520.46;105576;1254;62568;-25
2023/02/03 04:32:11;;;;;;;3.10;1.70;;;;;;;-0.58;81.06;98521.80;105643;1254;61389;-25
2023/02/03 04:34:39;;;;;;;2.10;1.40;;;;;;;-0.37;79.69;98532.64;105750;1255;74533;-25
2023/02/03 04:37:08;;;;;;;1.70;1.50;;;;;;;-0.43;79.60;98541.77;105869;1254;75693;-25
2023/02/03 04:39:36;;;;;;;5.00;1.90;;;;;;;-0.61;80.16;98541.70;105805;1254;74171;-25
2023/02/03 04:42:05;;;;;;;2.00;1.70;;;;;;;-0.83;81.12;98544.02;105662;1254;61152;-25
2023/02/03 04:44:33;;;;;;;3.00;1.70;;;;;;;-0.83;81.09;98548.94;105862;1257;61836;-25
2023/02/03 04:47:02;;;;;;;2.10;1.60;;;;;;;-0.74;80.40;98550.92;105780;1258;74534;-25
2023/02/03 04:49:31;;;;;;;2.00;1.80;;;;;;;-0.47;79.58;98552.34;105690;1254;75905;-25
2023/02/03 04:51:59;;;;;;;2.00;1.50;;;;;;;-0.47;79.03;98552.53;105744;1254;74186;-25
2023/02/03 04:54:28;;;;;;;2.00;1.30;;;;;;;-0.50;79.23;98554.02;105853;1254;61159;-26
2023/02/03 04:56:57;;;;;;;2.50;1.50;;;;;;;-0.65;80.27;98557.39;105873;1254;61904;-25
2023/02/03 04:59:25;;;;;;;2.30;1.70;;;;;;;-0.76;80.85;98555.29;105836;1254;73986;-25
2023/02/03 05:01:54;;;;;;;2.00;1.40;;;;;;;-0.68;80.73;98558.20;105866;1254;75628;-24
2023/02/03 05:04:23;;;;;;;3.80;1.70;;;;;;;-0.32;79.18;98558.54;105641;1254;74192;-25
2023/02/03 05:06:52;;;;;;;4.50;2.00;;;;;;;-0.50;79.37;98560.81;105840;1254;61059;-25
2023/02/03 05:09:21;;;;;;;2.60;1.60;;;;;;;-0.63;80.28;98565.67;105840;1258;61612;-25
2023/02/03 05:11:50;;;;;;;5.70;1.90;;;;;;;-0.62;80.12;98567.81;105587;1254;75164;-24
2023/02/03 05:14:19;;;;;;;3.10;2.00;;;;;;;-0.86;80.81;98559.98;105874;1263;75741;-24
2023/02/03 05:16:48;;;;;;;3.70;2.00;;;;;;;-0.78;81.31;98566.11;105610;1260;74207;-24
2023/02/03 05:19:17;;;;;;;2.40;1.90;;;;;;;-0.39;79.81;98570.61;105672;1257;61122;-26
2023/02/03 05:21:46;;;;;;;2.70;1.70;;;;;;;-0.35;79.42;98572.80;105823;1254;61174;-25
2023/02/03 05:24:14;;;;;;;2.10;1.70;;;;;;;-0.37;79.21;98577.48;105810;1257;75007;-25
2023/02/03 05:26:43;;;;;;;2.60;1.60;;;;;;;-0.51;78.88;98585.45;105819;1258;75753;-25
2023/02/03 05:29:11;;;;;;;2.30;1.60;;;;;;;-0.84;79.77;98584.27;105691;1255;74312;-24
2023/02/03 05:31:40;;;;;;;1.90;1.50;;;;;;;-0.75;79.80;98580.82;105891;1254;60942;-24
2023/02/03 05:34:08;;;;;;;1.10;1.00;;;;;;;-0.63;78.55;98589.36;105780;1257;62017;-24
2023/02/03 05:36:37;;;;;;;1.40;1.30;;;;;;;-0.32;77.75;98593.80;105671;1254;75303;-24
2023/02/03 05:39:06;;;;;;;1.50;1.30;;;;;;;-0.36;76.86;98587.70;105663;1253;75641;-25
2023/02/03 05:41:53;;;;;;;2.30;1.60;;;;;;;-0.53;77.35;98597.30;105628;1254;73941;-25
2023/02/03 05:44:25;;;;;;;2.50;1.70;;;;;;;-0.69;78.34;98602.89;105845;1254;61100;-25
2023/02/03 05:46:56;;;;;;;1.80;1.60;;;;;;;-0.81;78.78;98603.39;105751;1259;61848;-25
2023/02/03 05:49:24;;;;;;;2.30;2.10;;;;;;;-0.81;79.62;98612.59;105638;1259;75655;-25
2023/02/03 05:51:53;;;;;;;2.20;1.50;;;;;;;-0.43;78.31;98615.79;105916;1254;74959;-25
2023/02/03 05:54:21;;;;;;;2.10;1.60;;;;;;;-0.33;77.82;98618.61;105646;1261;72911;-25
2023/02/03 05:56:50;;;;;;;3.30;2.00;;;;;;;-0.43;78.43;98621.58;105692;1254;61058;-26
2023/02/03 05:59:18;;;;;;;2.60;2.10;;;;;;;-0.64;79.53;98620.09;105576;1257;61711;-25
2023/02/03 06:01:47;;;;;;;2.80;2.10;;;;;;;-0.66;79.84;98626.65;105710;1254;75428;-24
2023/02/03 06:04:16;;;;;;;3.40;2.30;;;;;;;-0.85;80.61;98630.68;105710;1260;74041;-25
2023/02/03 06:06:46;;;;;;;3.70;2.20;;;;;;;-0.74;81.42;98634.14;105599;1254;73944;-25
2023/02/03 06:09:14;;;;;;;1.90;1.60;;;;;;;-0.27;79.94;98643.05;105751;1253;62285;-26
2023/02/03 06:11:45;;;;;;;3.30;2.30;;;;;;;-0.23;79.78;98640.52;105638;1254;61156;-25
2023/02/03 06:14:15;;;;;;;3.10;2.10;;;;;;;-0.30;80.34;98648.15;105648;1259;75364;-25
2023/02/03 06:16:44;;;;;;;2.40;1.70;;;;;;;-0.44;80.79;98653.68;105656;1259;75972;-25
2023/02/03 06:19:13;;;;;;;2.80;2.40;;;;;;;-0.77;81.60;98656.78;105655;1254;72357;-25
2023/02/03 06:21:44;;;;;;;3.20;2.00;;;;;;;-0.75;81.92;98662.83;105621;1257;61207;-26
2023/02/03 06:24:13;;;;;;;2.60;2.10;;;;;;;-0.44;79.77;98658.47;105830;1257;61561;-25
2023/02/03 06:26:41;;;;;;;2.20;1.70;;;;;;;-0.21;78.84;98663.10;105862;1254;75400;-25
2023/02/03 06:29:10;;;;;;;2.80;2.40;;;;;;;-0.27;78.56;98661.85;105817;1254;75855;-25
2023/02/03 06:31:38;;;;;;;3.80;2.10;;;;;;;-0.53;79.27;98654.41;105910;1257;74157;-25
2023/02/03 06:34:07;;;;;;;3.50;2.30;;;;;;;-0.74;79.88;98652.36;105849;1257;61314;-25
2023/02/03 06:36:37;;;;;;;3.30;2.40;;;;;;;-0.95;80.73;98652.21;105707;1259;61602;-25
2023/02/03 06:39:06;;;;;;;2.60;2.00;;;;;;;-0.87;80.80;98661.26;105892;1254;75374;-25
2023/02/03 06:41:34;;;;;;;3.10;2.10;;;;;;;-0.44;79.40;98658.82;105707;1259;76323;-25
2023/02/03 06:44:03;;;;;;;3.50;2.40;;;;;;;-0.34;78.82;98666.24;105791;1254;73704;-25
2023/02/03 06:46:32;;;;;;;3.20;2.50;;;;;;;-0.39;78.87;98668.33;105855;1253;61124;-25
2023/02/03 06:49:01;;;;;;;4.60;2.30;;;;;;;-0.52;79.27;98673.45;105765;1254;61190;-25
2023/02/03 06:51:30;;;;;;;4.30;2.60;;;;;;;-0.73;79.47;98668.73;105709;1254;75370;-25
2023/02/03 06:53:59;;;;;;;4.80;2.80;;;;;;;-0.83;79.97;98672.87;105723;1260;75812;-25
2023/02/03 06:56:28;;;;;;;3.10;2.10;;;;;;;-0.60;79.79;98679.43;105713;1259;73171;-25
2023/02/03 06:58:57;;;;;;;3.60;2.50;;;;;;;-0.15;78.21;98677.70;105718;1258;62379;-25
2023/02/03 07:01:26;;;;;;;2.70;1.90;;;;;;;-0.11;77.21;98679.05;105866;1254;61746;-25
2023/02/03 07:03:57;;;;;;;5.40;2.70;;;;;;;-0.29;77.68;98675.06;105873;1253;75374;-25
2023/02/03 07:06:29;;;;;;;4.80;2.70;;;;;;;-0.57;78.14;98677.74;105683;1254;75702;-25
2023/02/03 07:09:03;;;;;;;3.40;2.30;;;;;;;-0.67;78.99;98681.06;105732;1254;72852;-25
2023/02/03 07:11:31;;;;;;;;;;;;;;;-0.74;79.45;98681.72;105725;1261;61217;-25
2023/02/03 07:14:00;;;;;;;4.60;2.40;;;;;;;-0.79;79.97;98679.87;105866;1253;61352;-24
2023/02/03 07:16:30;;;;;;;4.80;2.60;;;;;;;-0.24;77.90;98678.25;105746;1254;75165;-25
2023/02/03 07:18:59;;;;;;;4.40;2.30;;;;;;;0.12;76.42;98681.65;105714;1254;75578;-25
2023/02/03 07:21:28;;;;;;;3.00;2.10;;;;;;;0.02;76.42;98686.55;105731;1254;73199;-25
2023/02/03 07:23:56;;;;;;;3.90;2.10;;;;;;;-0.18;77.25;98682.94;105724;1259;61113;-25
2023/02/03 07:26:25;;;;;;;3.20;2.30;;;;;;;-0.35;78.39;98683.52;105857;1254;61631;-25
2023/02/03 07:28:54;;;;;;;4.70;2.80;;;;;;;-0.43;78.51;98683.33;105554;1254;74391;-25
2023/02/03 07:31:23;;;;;;;5.10;2.00;;;;;;;-0.53;79.03;98686.31;105551;1254;75823;-25
2023/02/03 07:33:51;;;;;;;3.70;2.50;;;;;;;-0.44;79.61;98685.58;105484;1254;74216;-25
2023/02/03 07:36:19;;;;;;;3.20;1.80;;;;;;;-0.26;79.50;98685.52;105636;1253;61291;-24
2023/02/03 07:38:49;;;;;;;3.50;2.30;;;;;;;-0.13;78.81;98685.45;105588;1257;61699;-27
2023/02/03 07:41:18;;;;;;;4.80;3.00;;;;;;;-0.27;79.57;98687.27;105676;1259;75108;-25
2023/02/03 07:43:46;;;;;;;4.80;2.50;;;;;;;-0.34;80.97;98687.04;105827;1254;75899;-25
2023/02/03 07:46:16;;;;;;;5.90;2.70;;;;;;;-0.58;82.20;98693.17;105759;1255;73971;-25
2023/02/03 07:48:44;;;;;;;4.30;2.30;;;;;;;-0.67;82.95;98688.77;105845;1254;61113;-25
2023/02/03 07:51:13;;;;;;;3.10;2.10;;;;;;;-0.72;83.78;98692.88;105707;1254;62218;-25
2023/02/03 07:53:44;;;;;;;2.40;1.70;;;;;;;-0.37;82.72;98691.12;105774;1255;75162;-25
2023/02/03 07:56:12;;;;;;;2.30;1.50;;;;;;;-0.29;81.70;98691.81;105603;1260;75275;-25
2023/02/03 07:58:41;;;;;;;3.20;1.90;;;;;;;-0.33;81.73;98686.86;105691;1254;74198;-25
2023/02/03 08:01:11;;;;;;;1.40;1.30;;;;;;;-0.52;81.95;98685.56;105849;1254;61025;-27
2023/02/03 08:03:40;;;;;;;2.20;1.60;;;;;;;-0.69;81.95;98678.42;105699;1254;61156;-25
2023/02/03 08:10:28;;;;;;;1.30;1.00;;;;;;;-0.43;80.42;98689.79;105786;1254;75639;-25
2023/02/03 08:12:58;;;;;;;1.40;1.10;;;;;;;-0.36;79.93;98699.23;105731;1257;74548;-24
2023/02/03 08:15:26;;;;;;;1.80;1.40;;;;;;;-0.52;80.12;98699.05;105735;1260;61174;-25
2023/02/03 08:17:56;;;;;;;3.10;1.60;;;;;;;-0.93;81.42;98694.89;105699;1257;61520;-24
2023/02/03 08:20:25;;;;;;;2.40;1.50;;;;;;;-1.18;81.41;98682.93;105686;1254;75182;-24
2023/02/03 08:22:54;;;;;;;1.40;1.00;;;;;;;-1.07;81.90;98695.97;105733;1257;75678;-25
2023/02/03 08:25:23;;;;;;;2.00;1.20;;;;;;;-0.54;80.27;98710.07;105852;1257;74267;-25
2023/02/03 08:27:52;;;;;;;1.90;1.20;;;;;;;-0.61;79.18;98706.09;105673;1254;61862;-25
2023/02/03 08:30:21;;;;;;;2.10;1.30;;;;;;;-0.62;79.68;98713.80;105784;1257;61867;-25
2023/02/03 08:32:49;;;;;;;3.20;1.90;;;;;;;-0.76;80.12;98713.15;105845;1256;75465;-25
2023/02/03 08:35:18;;;;;;;1.90;1.60;;;;;;;-0.96;80.33;98709.52;105819;1254;75861;-25
2023/02/03 08:37:47;;;;;;;1.30;1.10;;;;;;;-1.02;80.54;98702.77;105857;1257;73976;-25
2023/02/03 08:40:16;;;;;;;1.90;1.40;;;;;;;-0.97;80.32;98707.35;105906;1253;61044;-26
2023/02/03 08:42:44;;;;;;;3.10;1.30;;;;;;;-0.45;79.03;98706.94;105683;1254;61183;-26
2023/02/03 08:45:13;;;;;;;1.40;1.10;;;;;;;-0.67;78.00;98712.96;105590;1254;74451;-24
2023/02/03 08:47:43;;;;;;;2.10;1.40;;;;;;;-0.59;78.41;98718.42;105859;1258;76620;-24
2023/02/03 08:50:12;;;;;;;1.70;1.40;;;;;;;-0.90;78.55;98718.48;105848;1253;72061;-24
2023/02/03 08:52:40;;;;;;;1.90;1.30;;;;;;;-0.94;79.09;98718.84;105856;1253;61062;-24
2023/02/03 08:55:12;;;;;;;2.20;1.20;;;;;;;-1.04;79.26;98716.14;105842;1253;61825;-24
2023/02/03 08:57:41;;;;;;;2.30;1.30;;;;;;;-0.87;77.33;98708.80;105846;1254;75074;-24
2023/02/03 09:00:10;;;;;;;2.10;1.20;;;;;;;-0.53;76.73;98720.76;105782;1257;76250;-24
2023/02/03 09:02:39;;;;;;;2.20;1.00;;;;;;;-0.42;76.46;98712.10;105670;1259;74162;-24
2023/02/03 09:05:08;;;;;;;1.50;1.10;;;;;;;-0.79;76.37;98714.80;105901;1254;61080;-24
2023/02/03 09:07:36;;;;;;;1.60;1.20;;;;;;;-0.88;77.17;98715.00;105743;1260;61876;-24
2023/02/03 09:10:06;;;;;;;2.50;1.30;;;;;;;-0.91;78.16;98719.36;105705;1254;74915;-24
2023/02/03 09:12:35;;;;;;;1.30;1.20;;;;;;;-0.86;77.42;98709.77;105704;1260;75286;-26
2023/02/03 09:15:07;;;;;;;1.40;0.80;;;;;;;-0.72;75.20;98712.49;105721;1254;73925;-25
2023/02/03 09:17:35;;;;;;;1.70;1.10;;;;;;;-0.73;74.33;98708.62;105743;1258;61326;-25
2023/02/03 09:20:05;;;;;;;0.90;0.70;;;;;;;-0.65;73.90;98708.80;105777;1254;61845;-25
2023/02/03 09:22:34;;;;;;;1.70;1.10;;;;;;;-0.66;73.22;98705.77;105748;1258;74605;-25
2023/02/03 09:25:02;;;;;;;2.00;0.90;;;;;;;-1.07;73.54;98705.33;105727;1254;75829;-25
2023/02/03 09:27:31;;;;;;;2.20;0.90;;;;;;;-1.26;74.16;98700.77;105763;1257;74181;-25
2023/02/03 09:30:00;;;;;;;1.40;1.00;;;;;;;-1.44;73.56;98689.73;105672;1254;61173;-25
2023/02/03 09:32:29;;;;;;;1.40;1.00;;;;;;;-1.60;74.29;98711.26;105807;1254;61985;-25
2023/02/03 09:34:57;;;;;;;1.70;1.30;;;;;;;-1.65;76.31;98719.43;105760;1254;74252;-25
2023/02/03 09:37:28;;;;;;;1.50;0.80;;;;;;;-1.52;80.31;98718.62;105633;1259;75849;-25
2023/02/03 09:39:58;;;;;;;0.70;0.70;;;;;;;-1.28;79.89;98722.83;105711;1254;72948;-25
2023/02/03 09:42:49;;;;;;;3.50;1.30;;;;;;;-1.46;80.94;98729.14;105847;1254;61113;-25
2023/02/03 09:45:25;;;;;;;3.00;1.20;;;;;;;-1.58;83.38;98730.23;105696;1253;61212;-25
2023/02/03 09:47:54;;;;;;;1.00;0.90;;;;;;;-1.81;84.65;98721.70;105709;1259;74289;-25
2023/02/03 09:50:24;;;;;;;1.80;1.20;;;;;;;-1.76;84.60;98725.46;105739;1254;75767;-25
2023/02/03 09:52:54;;;;;;;2.00;1.50;;;;;;;-1.49;81.58;98722.77;105673;1260;73929;-25
2023/02/03 09:55:31;;;;;;;1.60;1.40;;;;;;;-1.39;79.42;98710.64;105888;1254;61071;-25
2023/02/03 09:58:04;;;;;;;2.50;1.30;;;;;;;-1.40;78.15;98709.67;105621;1253;61143;-25
2023/02/03 10:00:43;;;;;;;1.70;1.40;;;;;;;-1.55;77.93;98712.77;105611;1259;75221;-26
2023/02/03 10:03:32;;;;;;;1.30;1.10;;;;;;;-1.67;77.69;98715.25;105522;1254;75758;-25
2023/02/03 10:06:12;;;;;;;3.90;1.70;;;;;;;-1.77;77.89;98709.64;105384;1260;74257;-26
2023/02/03 10:08:59;;;;;;;2.70;1.10;;;;;;;-1.60;77.56;98709.88;105492;1254;61123;-25
2023/02/03 10:11:53;;;;;;;2.30;1.60;;;;;;;-1.24;77.20;98708.04;105780;1253;61151;-26
2023/02/03 10:14:46;;;;;;;1.90;1.40;;;;;;;-1.28;76.23;98700.02;105718;1256;75464;-26
2023/02/03 10:17:15;;;;;;;1.90;1.40;;;;;;;-1.49;76.81;98692.27;105720;1254;75886;-26
2023/02/03 10:20:08;;;;;;;2.00;1.00;;;;;;;-1.63;76.84;98698.25;105871;1254;74176;-25
2023/02/03 10:22:47;;;;;;;2.20;1.40;;;;;;;-1.65;76.98;98702.56;105548;1256;61195;-25
2023/02/03 10:25:19;;;;;;;2.10;1.20;;;;;;;-1.64;76.14;98693.04;105731;1259;61590;-25
2023/02/03 10:27:48;;;;;;;1.80;1.40;;;;;;;-1.31;74.30;98681.23;105709;1258;74531;-25
2023/02/03 10:30:16;;;;;;;1.10;0.80;;;;;;;-1.21;73.09;98682.86;105804;1253;76653;-26
2023/02/03 10:32:59;;;;;;;1.80;1.00;;;;;;;-1.34;73.32;98689.69;105804;1257;74028;-25
2023/02/03 10:35:49;;;;;;;1.90;1.00;;;;;;;-1.39;73.80;98697.52;105692;1254;61186;-25
2023/02/03 10:38:49;;;;;;;2.80;1.20;;;;;;;-1.63;73.45;98676.45;105698;1254;61243;-26
2023/02/03 10:41:18;;;;;;;2.20;1.50;;;;;;;-1.77;74.47;98688.73;105778;1254;75394;-26
2023/02/03 10:43:51;;;;;;;1.80;1.20;;;;;;;-1.85;73.38;98686.80;105698;1254;75774;-26
2023/02/03 10:46:26;;;;;;;1.80;0.70;;;;;;;-1.82;73.48;98693.85;105713;1254;73230;-27
2023/02/03 10:48:55;;;;;;;2.00;1.10;;;;;;;-1.58;72.00;98687.00;105520;1253;61228;-25
2023/02/03 10:51:48;;;;;;;1.70;1.20;;;;;;;-1.37;69.70;98683.66;105843;1254;61856;-25
2023/02/03 10:54:32;;;;;;;1.00;0.80;;;;;;;-1.13;70.40;98685.62;105669;1253;75336;-26
2023/02/03 10:57:14;;;;;;;1.60;1.00;;;;;;;-1.32;69.12;98673.77;105697;1254;74795;-24
2023/02/03 10:59:44;;;;;;;1.70;1.00;;;;;;;-1.45;69.66;98684.30;105531;1253;73042;-24
2023/02/03 11:02:28;;;;;;;2.00;1.00;;;;;;;-1.44;70.86;98686.33;105373;1256;61059;-25
2023/02/03 11:05:29;;;;;;;1.40;0.80;;;;;;;-1.61;70.31;98687.63;105417;1254;61118;-24
2023/02/03 11:07:57;;;;;;;1.80;0.90;;;;;;;-1.67;68.95;98688.02;105253;1254;75158;-25
2023/02/03 11:10:37;;;;;;;1.40;0.80;;;;;;;-1.68;69.16;98690.24;105539;1254;75469;-25
2023/02/03 11:13:10;;;;;;;0.80;0.50;;;;;;;-1.74;67.21;98687.59;105520;1259;72398;-25
2023/02/03 11:16:01;;;;;;;0.70;0.60;;;;;;;-1.67;67.54;98690.73;105514;1258;61109;-25
2023/02/03 11:18:57;;;;;;;1.10;0.70;;;;;;;-1.79;66.66;98693.23;105655;1254;61611;-25
2023/02/03 11:21:37;;;;;;;1.30;0.60;;;;;;;-1.76;67.75;98697.20;105813;1254;75057;-25
2023/02/03 11:24:26;;;;;;;0.90;0.70;;;;;;;-1.73;67.07;98679.70;105560;1259;73940;-25
2023/02/03 11:27:03;;;;;;;0.80;0.60;;;;;;;-1.74;66.40;98680.27;105702;1254;74113;-25
2023/02/03 11:29:35;;;;;;;1.20;0.80;;;;;;;-1.77;66.26;98674.08;105635;1253;61054;-25
2023/02/03 11:32:13;;;;;;;0.80;0.70;;;;;;;-1.89;66.02;98675.03;105282;1254;61142;-24
2023/02/03 11:34:46;;;;;;;0.80;0.70;;;;;;;-1.92;65.99;98671.89;105480;1254;75245;-25
2023/02/03 11:37:25;;;;;;;0.70;0.60;;;;;;;-1.81;67.03;98675.45;105398;1259;75811;-25
2023/02/03 11:40:31;;;;;;;1.00;0.60;;;;;;;-1.88;65.85;98668.52;105538;1254;74106;-25
2023/02/03 11:43:14;;;;;;;0.90;0.80;;;;;;;-1.88;65.90;98670.77;105587;1254;61059;-25
2023/02/03 11:45:48;;;;;;;0.50;0.50;;;;;;;-1.96;65.09;98666.41;105421;1254;61203;-25
2023/02/03 11:48:29;;;;;;;0.50;0.50;;;;;;;-1.88;66.22;98674.48;105668;1254;75367;-25
2023/02/03 11:51:32;;;;;;;1.00;0.80;;;;;;;-1.88;65.64;98676.02;105687;1254;75845;-25
2023/02/03 11:54:13;;;;;;;2.40;1.00;;;;;;;-1.90;65.61;98677.30;105781;1254;73961;-25
2023/02/03 11:57:08;;;;;;;3.10;0.80;;;;;;;-1.90;65.63;98674.23;105713;1253;61132;-25
2023/02/03 12:00:11;;;;;;;0.50;0.50;;;;;;;-1.88;65.54;98669.73;105680;1260;61944;-25
2023/02/03 12:03:03;;;;;;;0.60;0.60;;;;;;;-2.05;63.55;98671.35;105619;1254;75700;-25